sensor_id;sensor_type;location;lat;lon;timestamp;P1;durP1;ratioP1;P2;durP2;ratioP2
4391;SDS011;2210;51.938;8.488;2023-05-10T00:02:45;7.13;;;6.53;;
4391;SDS011;2210;51.938;8.488;2023-05-10T00:06:45;9.07;;;7.77;;
4391;SDS011;2210;51.938;8.488;2023-05-10T00:10:45;7.20;;;6.47;;
4391;SDS011;2210;51.938;8.488;2023-05-10T00:14:46;7.53;;;6.83;;
4391;SDS011;2210;51.938;8.488;2023-05-10T00:18:46;8.43;;;7.63;;
4391;SDS011;2210;51.938;8.488;2023-05-10T00:22:52;7.23;;;6.63;;
4391;SDS011;2210;51.938;8.488;2023-05-10T00:26:52;7.83;;;6.90;;
4391;SDS011;2210;51.938;8.488;2023-05-10T00:30:53;6.93;;;6.27;;
4391;SDS011;2210;51.938;8.488;2023-05-10T00:35:02;6.90;;;6.15;;
4391;SDS011;2210;51.938;8.488;2023-05-10T00:39:03;7.00;;;6.30;;
4391;SDS011;2210;51.938;8.488;2023-05-10T00:43:06;7.00;;;6.30;;
4391;SDS011;2210;51.938;8.488;2023-05-10T00:47:07;7.20;;;6.50;;
4391;SDS011;2210;51.938;8.488;2023-05-10T00:51:08;7.70;;;6.83;;
4391;SDS011;2210;51.938;8.488;2023-05-10T00:55:09;8.60;;;7.83;;
4391;SDS011;2210;51.938;8.488;2023-05-10T00:59:17;8.77;;;6.77;;
4391;SDS011;2210;51.938;8.488;2023-05-10T01:03:18;7.90;;;6.93;;
4391;SDS011;2210;51.938;8.488;2023-05-10T01:07:21;7.80;;;7.00;;
4391;SDS011;2210;51.938;8.488;2023-05-10T01:11:24;9.13;;;7.70;;
4391;SDS011;2210;51.938;8.488;2023-05-10T01:15:25;8.57;;;7.77;;
4391;SDS011;2210;51.938;8.488;2023-05-10T01:19:32;8.33;;;7.53;;
4391;SDS011;2210;51.938;8.488;2023-05-10T01:37:31;9.97;;;8.97;;
4391;SDS011;2210;51.938;8.488;2023-05-10T01:46:11;9.33;;;8.43;;
4391;SDS011;2210;51.938;8.488;2023-05-10T01:50:22;8.57;;;7.77;;
4391;SDS011;2210;51.938;8.488;2023-05-10T01:54:28;8.00;;;7.23;;
4391;SDS011;2210;51.938;8.488;2023-05-10T01:58:30;9.93;;;6.83;;
4391;SDS011;2210;51.938;8.488;2023-05-10T02:02:37;23.83;;;5.30;;
4391;SDS011;2210;51.938;8.488;2023-05-10T02:06:42;9.17;;;4.70;;
4391;SDS011;2210;51.938;8.488;2023-05-10T02:10:46;5.47;;;4.97;;
4391;SDS011;2210;51.938;8.488;2023-05-10T02:14:52;4.87;;;4.37;;
4391;SDS011;2210;51.938;8.488;2023-05-10T02:18:57;9.00;;;4.40;;
4391;SDS011;2210;51.938;8.488;2023-05-10T02:23:04;3.90;;;3.60;;
4391;SDS011;2210;51.938;8.488;2023-05-10T02:27:12;3.93;;;3.60;;
4391;SDS011;2210;51.938;8.488;2023-05-10T02:31:18;6.30;;;4.50;;
4391;SDS011;2210;51.938;8.488;2023-05-10T02:35:23;7.00;;;5.07;;
4391;SDS011;2210;51.938;8.488;2023-05-10T02:39:25;6.27;;;4.80;;
4391;SDS011;2210;51.938;8.488;2023-05-10T02:43:28;5.37;;;4.87;;
4391;SDS011;2210;51.938;8.488;2023-05-10T02:47:34;6.57;;;5.17;;
4391;SDS011;2210;51.938;8.488;2023-05-10T02:51:50;6.17;;;5.57;;
4391;SDS011;2210;51.938;8.488;2023-05-10T02:55:58;6.57;;;5.73;;
4391;SDS011;2210;51.938;8.488;2023-05-10T03:00:01;7.20;;;6.50;;
4391;SDS011;2210;51.938;8.488;2023-05-10T03:04:06;5.60;;;4.97;;
4391;SDS011;2210;51.938;8.488;2023-05-10T03:08:07;8.97;;;7.73;;
4391;SDS011;2210;51.938;8.488;2023-05-10T03:16:34;8.27;;;7.30;;
4391;SDS011;2210;51.938;8.488;2023-05-10T03:20:41;9.23;;;6.80;;
4391;SDS011;2210;51.938;8.488;2023-05-10T03:24:43;7.67;;;6.40;;
4391;SDS011;2210;51.938;8.488;2023-05-10T03:28:45;7.53;;;6.73;;
4391;SDS011;2210;51.938;8.488;2023-05-10T03:32:50;7.40;;;6.70;;
4391;SDS011;2210;51.938;8.488;2023-05-10T03:36:56;10.20;;;5.90;;
4391;SDS011;2210;51.938;8.488;2023-05-10T03:41:03;7.70;;;5.73;;
4391;SDS011;2210;51.938;8.488;2023-05-10T03:45:03;16.23;;;5.90;;
4391;SDS011;2210;51.938;8.488;2023-05-10T03:49:03;5.40;;;4.90;;
4391;SDS011;2210;51.938;8.488;2023-05-10T03:53:07;5.22;;;4.28;;
4391;SDS011;2210;51.938;8.488;2023-05-10T03:57:07;4.57;;;4.00;;
4391;SDS011;2210;51.938;8.488;2023-05-10T04:01:14;3.23;;;2.87;;
4391;SDS011;2210;51.938;8.488;2023-05-10T04:05:14;2.60;;;2.40;;
4391;SDS011;2210;51.938;8.488;2023-05-10T04:09:24;1.40;;;1.30;;
4391;SDS011;2210;51.938;8.488;2023-05-10T04:13:24;1.20;;;1.10;;
4391;SDS011;2210;51.938;8.488;2023-05-10T04:17:27;6.40;;;1.65;;
4391;SDS011;2210;51.938;8.488;2023-05-10T04:21:30;3.00;;;1.40;;
4391;SDS011;2210;51.938;8.488;2023-05-10T04:25:34;1.30;;;1.20;;
4391;SDS011;2210;51.938;8.488;2023-05-10T04:29:35;1.10;;;1.00;;
4391;SDS011;2210;51.938;8.488;2023-05-10T04:33:35;1.45;;;1.33;;
4391;SDS011;2210;51.938;8.488;2023-05-10T04:37:36;1.90;;;1.80;;
4391;SDS011;2210;51.938;8.488;2023-05-10T04:41:37;2.20;;;2.00;;
4391;SDS011;2210;51.938;8.488;2023-05-10T04:45:37;2.40;;;2.00;;
4391;SDS011;2210;51.938;8.488;2023-05-10T04:49:37;1.70;;;1.60;;
4391;SDS011;2210;51.938;8.488;2023-05-10T04:53:44;1.80;;;1.70;;
4391;SDS011;2210;51.938;8.488;2023-05-10T04:57:53;2.20;;;2.00;;
4391;SDS011;2210;51.938;8.488;2023-05-10T05:01:56;1.97;;;1.87;;
4391;SDS011;2210;51.938;8.488;2023-05-10T05:05:56;2.00;;;1.90;;
4391;SDS011;2210;51.938;8.488;2023-05-10T05:10:15;2.22;;;1.90;;
4391;SDS011;2210;51.938;8.488;2023-05-10T05:14:22;3.70;;;2.17;;
4391;SDS011;2210;51.938;8.488;2023-05-10T05:18:25;4.97;;;2.67;;
4391;SDS011;2210;51.938;8.488;2023-05-10T05:22:25;2.40;;;2.20;;
4391;SDS011;2210;51.938;8.488;2023-05-10T05:26:27;2.23;;;2.03;;
4391;SDS011;2210;51.938;8.488;2023-05-10T05:30:27;2.60;;;2.40;;
4391;SDS011;2210;51.938;8.488;2023-05-10T05:34:28;1.93;;;1.83;;
4391;SDS011;2210;51.938;8.488;2023-05-10T05:38:34;2.08;;;1.88;;
4391;SDS011;2210;51.938;8.488;2023-05-10T05:42:34;3.10;;;2.60;;
4391;SDS011;2210;51.938;8.488;2023-05-10T05:46:38;3.30;;;2.97;;
4391;SDS011;2210;51.938;8.488;2023-05-10T05:50:38;2.27;;;2.07;;
4391;SDS011;2210;51.938;8.488;2023-05-10T05:54:45;2.10;;;1.33;;
4391;SDS011;2210;51.938;8.488;2023-05-10T05:58:45;2.93;;;1.80;;
4391;SDS011;2210;51.938;8.488;2023-05-10T06:02:46;4.10;;;1.83;;
4391;SDS011;2210;51.938;8.488;2023-05-10T06:06:47;2.70;;;2.40;;
4391;SDS011;2210;51.938;8.488;2023-05-10T06:10:48;5.20;;;2.50;;
4391;SDS011;2210;51.938;8.488;2023-05-10T06:14:48;3.93;;;2.20;;
4391;SDS011;2210;51.938;8.488;2023-05-10T06:18:48;2.40;;;2.20;;
4391;SDS011;2210;51.938;8.488;2023-05-10T06:22:48;3.00;;;2.70;;
4391;SDS011;2210;51.938;8.488;2023-05-10T06:26:55;4.00;;;2.80;;
4391;SDS011;2210;51.938;8.488;2023-05-10T06:30:58;2.60;;;2.27;;
4391;SDS011;2210;51.938;8.488;2023-05-10T06:34:58;2.90;;;2.27;;
4391;SDS011;2210;51.938;8.488;2023-05-10T06:38:58;2.72;;;2.35;;
4391;SDS011;2210;51.938;8.488;2023-05-10T06:43:04;4.07;;;2.70;;
4391;SDS011;2210;51.938;8.488;2023-05-10T06:47:11;3.33;;;2.57;;
4391;SDS011;2210;51.938;8.488;2023-05-10T06:51:14;3.20;;;2.30;;
4391;SDS011;2210;51.938;8.488;2023-05-10T06:55:17;2.63;;;2.43;;
4391;SDS011;2210;51.938;8.488;2023-05-10T06:59:18;4.00;;;2.53;;
4391;SDS011;2210;51.938;8.488;2023-05-10T07:03:19;3.77;;;3.37;;
4391;SDS011;2210;51.938;8.488;2023-05-10T07:07:19;3.53;;;3.23;;
4391;SDS011;2210;51.938;8.488;2023-05-10T07:11:22;4.47;;;3.23;;
4391;SDS011;2210;51.938;8.488;2023-05-10T07:15:23;3.83;;;3.43;;
4391;SDS011;2210;51.938;8.488;2023-05-10T07:19:29;3.80;;;3.40;;
4391;SDS011;2210;51.938;8.488;2023-05-10T07:23:38;3.77;;;3.47;;
4391;SDS011;2210;51.938;8.488;2023-05-10T07:27:45;5.30;;;4.30;;
4391;SDS011;2210;51.938;8.488;2023-05-10T07:31:48;6.30;;;3.90;;
4391;SDS011;2210;51.938;8.488;2023-05-10T07:35:51;9.40;;;5.77;;
4391;SDS011;2210;51.938;8.488;2023-05-10T07:39:54;8.20;;;6.13;;
4391;SDS011;2210;51.938;8.488;2023-05-10T07:43:56;11.97;;;8.57;;
4391;SDS011;2210;51.938;8.488;2023-05-10T07:47:56;15.18;;;9.07;;
4391;SDS011;2210;51.938;8.488;2023-05-10T07:51:59;13.73;;;9.45;;
4391;SDS011;2210;51.938;8.488;2023-05-10T07:56:19;12.17;;;9.10;;
4391;SDS011;2210;51.938;8.488;2023-05-10T08:00:21;16.90;;;10.13;;
4391;SDS011;2210;51.938;8.488;2023-05-10T08:04:24;17.30;;;11.27;;
4391;SDS011;2210;51.938;8.488;2023-05-10T08:08:27;17.53;;;12.13;;
4391;SDS011;2210;51.938;8.488;2023-05-10T08:12:28;17.40;;;10.90;;
4391;SDS011;2210;51.938;8.488;2023-05-10T08:16:28;16.37;;;11.23;;
4391;SDS011;2210;51.938;8.488;2023-05-10T08:20:28;16.90;;;11.60;;
4391;SDS011;2210;51.938;8.488;2023-05-10T08:24:35;18.70;;;12.77;;
4391;SDS011;2210;51.938;8.488;2023-05-10T08:28:41;18.40;;;12.47;;
4391;SDS011;2210;51.938;8.488;2023-05-10T08:32:41;15.70;;;11.47;;
4391;SDS011;2210;51.938;8.488;2023-05-10T08:36:41;15.02;;;11.98;;
4391;SDS011;2210;51.938;8.488;2023-05-10T08:40:42;18.20;;;10.50;;
4391;SDS011;2210;51.938;8.488;2023-05-10T08:44:59;15.73;;;11.20;;
4391;SDS011;2210;51.938;8.488;2023-05-10T08:48:59;12.90;;;10.23;;
4391;SDS011;2210;51.938;8.488;2023-05-10T08:53:12;22.80;;;11.10;;
4391;SDS011;2210;51.938;8.488;2023-05-10T08:57:30;16.23;;;10.70;;
4391;SDS011;2210;51.938;8.488;2023-05-10T09:01:31;14.33;;;11.40;;
4391;SDS011;2210;51.938;8.488;2023-05-10T09:05:35;14.17;;;10.77;;
4391;SDS011;2210;51.938;8.488;2023-05-10T09:09:36;17.13;;;12.97;;
4391;SDS011;2210;51.938;8.488;2023-05-10T09:13:46;14.60;;;12.43;;
4391;SDS011;2210;51.938;8.488;2023-05-10T09:17:50;18.40;;;13.17;;
4391;SDS011;2210;51.938;8.488;2023-05-10T09:21:50;18.47;;;14.73;;
4391;SDS011;2210;51.938;8.488;2023-05-10T09:26:04;23.55;;;14.98;;
4391;SDS011;2210;51.938;8.488;2023-05-10T09:30:05;19.27;;;15.57;;
4391;SDS011;2210;51.938;8.488;2023-05-10T09:34:09;24.97;;;15.43;;
4391;SDS011;2210;51.938;8.488;2023-05-10T09:38:10;18.50;;;14.30;;
4391;SDS011;2210;51.938;8.488;2023-05-10T09:42:22;24.13;;;13.57;;
4391;SDS011;2210;51.938;8.488;2023-05-10T09:46:23;18.70;;;13.00;;
4391;SDS011;2210;51.938;8.488;2023-05-10T09:50:26;15.10;;;12.02;;
4391;SDS011;2210;51.938;8.488;2023-05-10T09:54:27;15.67;;;12.60;;
4391;SDS011;2210;51.938;8.488;2023-05-10T09:58:35;21.33;;;14.00;;
4391;SDS011;2210;51.938;8.488;2023-05-10T10:02:40;18.07;;;12.00;;
4391;SDS011;2210;51.938;8.488;2023-05-10T10:11:07;14.00;;;11.53;;
4391;SDS011;2210;51.938;8.488;2023-05-10T10:15:10;12.20;;;9.10;;
4391;SDS011;2210;51.938;8.488;2023-05-10T10:19:14;13.70;;;11.83;;
4391;SDS011;2210;51.938;8.488;2023-05-10T10:23:15;13.53;;;10.90;;
4391;SDS011;2210;51.938;8.488;2023-05-10T10:27:19;17.57;;;12.40;;
4391;SDS011;2210;51.938;8.488;2023-05-10T10:35:57;14.57;;;9.63;;
4391;SDS011;2210;51.938;8.488;2023-05-10T10:39:59;11.13;;;9.17;;
4391;SDS011;2210;51.938;8.488;2023-05-10T10:48:37;12.87;;;10.50;;
4391;SDS011;2210;51.938;8.488;2023-05-10T10:52:41;11.47;;;9.57;;
4391;SDS011;2210;51.938;8.488;2023-05-10T10:57:09;12.90;;;9.23;;
4391;SDS011;2210;51.938;8.488;2023-05-10T11:01:19;8.67;;;7.50;;
4391;SDS011;2210;51.938;8.488;2023-05-10T11:05:24;11.00;;;7.70;;
4391;SDS011;2210;51.938;8.488;2023-05-10T11:09:28;14.27;;;8.47;;
4391;SDS011;2210;51.938;8.488;2023-05-10T11:13:49;11.77;;;7.10;;
4391;SDS011;2210;51.938;8.488;2023-05-10T11:17:49;10.80;;;7.60;;
4391;SDS011;2210;51.938;8.488;2023-05-10T11:26:10;7.43;;;6.63;;
4391;SDS011;2210;51.938;8.488;2023-05-10T11:30:17;13.40;;;8.43;;
4391;SDS011;2210;51.938;8.488;2023-05-10T11:34:33;6.23;;;5.63;;
4391;SDS011;2210;51.938;8.488;2023-05-10T11:38:39;7.83;;;5.90;;
4391;SDS011;2210;51.938;8.488;2023-05-10T11:42:42;8.03;;;6.20;;
4391;SDS011;2210;51.938;8.488;2023-05-10T11:46:46;9.10;;;6.17;;
4391;SDS011;2210;51.938;8.488;2023-05-10T11:50:58;9.10;;;6.53;;
4391;SDS011;2210;51.938;8.488;2023-05-10T11:55:15;13.13;;;8.13;;
4391;SDS011;2210;51.938;8.488;2023-05-10T11:59:25;13.07;;;7.57;;
4391;SDS011;2210;51.938;8.488;2023-05-10T12:03:25;17.80;;;9.33;;
4391;SDS011;2210;51.938;8.488;2023-05-10T12:07:27;13.63;;;9.90;;
4391;SDS011;2210;51.938;8.488;2023-05-10T12:11:27;16.13;;;9.25;;
4391;SDS011;2210;51.938;8.488;2023-05-10T12:15:37;8.27;;;6.73;;
4391;SDS011;2210;51.938;8.488;2023-05-10T12:19:38;8.87;;;6.53;;
4391;SDS011;2210;51.938;8.488;2023-05-10T12:23:45;9.17;;;7.40;;
4391;SDS011;2210;51.938;8.488;2023-05-10T12:27:56;9.47;;;8.13;;
4391;SDS011;2210;51.938;8.488;2023-05-10T12:32:03;11.67;;;8.67;;
4391;SDS011;2210;51.938;8.488;2023-05-10T12:36:07;17.20;;;10.73;;
4391;SDS011;2210;51.938;8.488;2023-05-10T12:40:08;31.80;;;11.17;;
4391;SDS011;2210;51.938;8.488;2023-05-10T12:44:09;13.43;;;10.97;;
4391;SDS011;2210;51.938;8.488;2023-05-10T12:48:09;14.90;;;10.80;;
4391;SDS011;2210;51.938;8.488;2023-05-10T12:52:13;16.70;;;12.57;;
4391;SDS011;2210;51.938;8.488;2023-05-10T12:56:16;14.87;;;11.43;;
4391;SDS011;2210;51.938;8.488;2023-05-10T13:00:19;16.37;;;13.50;;
4391;SDS011;2210;51.938;8.488;2023-05-10T13:04:19;20.27;;;15.27;;
4391;SDS011;2210;51.938;8.488;2023-05-10T13:08:29;17.43;;;11.63;;
4391;SDS011;2210;51.938;8.488;2023-05-10T13:12:33;17.83;;;11.37;;
4391;SDS011;2210;51.938;8.488;2023-05-10T13:16:33;16.77;;;14.00;;
4391;SDS011;2210;51.938;8.488;2023-05-10T13:20:33;18.25;;;13.65;;
4391;SDS011;2210;51.938;8.488;2023-05-10T13:24:36;21.85;;;12.52;;
4391;SDS011;2210;51.938;8.488;2023-05-10T13:28:39;11.77;;;10.20;;
4391;SDS011;2210;51.938;8.488;2023-05-10T13:32:52;8.80;;;6.87;;
4391;SDS011;2210;51.938;8.488;2023-05-10T13:36:53;3.63;;;3.17;;
4391;SDS011;2210;51.938;8.488;2023-05-10T13:40:53;3.10;;;2.80;;
4391;SDS011;2210;51.938;8.488;2023-05-10T13:44:57;5.67;;;2.80;;
4391;SDS011;2210;51.938;8.488;2023-05-10T13:49:03;7.43;;;3.73;;
4391;SDS011;2210;51.938;8.488;2023-05-10T13:53:10;5.50;;;3.53;;
4391;SDS011;2210;51.938;8.488;2023-05-10T13:57:14;6.03;;;3.37;;
4391;SDS011;2210;51.938;8.488;2023-05-10T14:01:16;3.87;;;3.50;;
4391;SDS011;2210;51.938;8.488;2023-05-10T14:09:48;3.67;;;3.30;;
4391;SDS011;2210;51.938;8.488;2023-05-10T14:13:55;3.97;;;3.57;;
4391;SDS011;2210;51.938;8.488;2023-05-10T14:18:01;11.30;;;4.10;;
4391;SDS011;2210;51.938;8.488;2023-05-10T14:22:04;8.10;;;4.20;;
4391;SDS011;2210;51.938;8.488;2023-05-10T14:26:05;5.57;;;4.83;;
4391;SDS011;2210;51.938;8.488;2023-05-10T14:30:06;4.23;;;3.83;;
4391;SDS011;2210;51.938;8.488;2023-05-10T14:34:19;6.07;;;4.00;;
4391;SDS011;2210;51.938;8.488;2023-05-10T14:38:29;5.27;;;4.87;;
4391;SDS011;2210;51.938;8.488;2023-05-10T14:42:32;5.27;;;4.07;;
4391;SDS011;2210;51.938;8.488;2023-05-10T14:46:35;7.43;;;5.37;;
4391;SDS011;2210;51.938;8.488;2023-05-10T14:50:35;7.60;;;5.77;;
4391;SDS011;2210;51.938;8.488;2023-05-10T14:54:36;6.05;;;5.25;;
4391;SDS011;2210;51.938;8.488;2023-05-10T14:58:36;6.93;;;5.37;;
4391;SDS011;2210;51.938;8.488;2023-05-10T15:02:36;7.72;;;5.63;;
4391;SDS011;2210;51.938;8.488;2023-05-10T15:06:37;5.97;;;5.15;;
4391;SDS011;2210;51.938;8.488;2023-05-10T15:10:37;11.00;;;6.80;;
4391;SDS011;2210;51.938;8.488;2023-05-10T15:14:38;8.57;;;6.47;;
4391;SDS011;2210;51.938;8.488;2023-05-10T15:18:38;10.40;;;7.23;;
4391;SDS011;2210;51.938;8.488;2023-05-10T15:22:38;11.55;;;7.80;;
4391;SDS011;2210;51.938;8.488;2023-05-10T15:26:40;10.33;;;8.20;;
4391;SDS011;2210;51.938;8.488;2023-05-10T15:30:40;10.80;;;8.33;;
4391;SDS011;2210;51.938;8.488;2023-05-10T15:34:40;11.27;;;9.30;;
4391;SDS011;2210;51.938;8.488;2023-05-10T15:38:41;13.52;;;9.32;;
4391;SDS011;2210;51.938;8.488;2023-05-10T15:42:41;14.10;;;10.67;;
4391;SDS011;2210;51.938;8.488;2023-05-10T15:46:41;12.30;;;9.60;;
4391;SDS011;2210;51.938;8.488;2023-05-10T15:50:41;11.13;;;9.80;;
4391;SDS011;2210;51.938;8.488;2023-05-10T15:54:41;16.65;;;12.30;;
4391;SDS011;2210;51.938;8.488;2023-05-10T15:58:42;18.60;;;11.37;;
4391;SDS011;2210;51.938;8.488;2023-05-10T16:02:46;13.20;;;7.93;;
4391;SDS011;2210;51.938;8.488;2023-05-10T16:06:49;10.60;;;8.27;;
4391;SDS011;2210;51.938;8.488;2023-05-10T16:10:52;11.80;;;8.77;;
4391;SDS011;2210;51.938;8.488;2023-05-10T16:14:55;14.03;;;9.40;;
4391;SDS011;2210;51.938;8.488;2023-05-10T16:19:04;15.03;;;9.50;;
4391;SDS011;2210;51.938;8.488;2023-05-10T16:23:05;11.30;;;8.23;;
4391;SDS011;2210;51.938;8.488;2023-05-10T16:27:06;9.80;;;8.33;;
4391;SDS011;2210;51.938;8.488;2023-05-10T16:31:06;14.83;;;8.67;;
4391;SDS011;2210;51.938;8.488;2023-05-10T16:35:07;9.60;;;8.57;;
4391;SDS011;2210;51.938;8.488;2023-05-10T16:39:07;13.07;;;8.20;;
4391;SDS011;2210;51.938;8.488;2023-05-10T16:43:08;11.50;;;6.77;;
4391;SDS011;2210;51.938;8.488;2023-05-10T16:47:09;7.68;;;5.00;;
4391;SDS011;2210;51.938;8.488;2023-05-10T16:51:09;5.80;;;3.92;;
4391;SDS011;2210;51.938;8.488;2023-05-10T16:55:12;7.70;;;3.50;;
4391;SDS011;2210;51.938;8.488;2023-05-10T16:59:38;3.73;;;3.20;;
4391;SDS011;2210;51.938;8.488;2023-05-10T17:03:39;4.40;;;3.87;;
4391;SDS011;2210;51.938;8.488;2023-05-10T17:07:40;6.43;;;4.10;;
4391;SDS011;2210;51.938;8.488;2023-05-10T17:11:40;7.28;;;3.63;;
4391;SDS011;2210;51.938;8.488;2023-05-10T17:15:41;6.50;;;4.57;;
4391;SDS011;2210;51.938;8.488;2023-05-10T17:19:43;4.27;;;3.87;;
4391;SDS011;2210;51.938;8.488;2023-05-10T17:23:53;6.47;;;4.60;;
4391;SDS011;2210;51.938;8.488;2023-05-10T17:27:53;5.77;;;4.60;;
4391;SDS011;2210;51.938;8.488;2023-05-10T17:31:53;6.30;;;4.50;;
4391;SDS011;2210;51.938;8.488;2023-05-10T17:35:54;5.73;;;4.70;;
4391;SDS011;2210;51.938;8.488;2023-05-10T17:39:55;4.80;;;4.40;;
4391;SDS011;2210;51.938;8.488;2023-05-10T17:43:55;6.65;;;5.53;;
4391;SDS011;2210;51.938;8.488;2023-05-10T17:47:59;6.77;;;5.30;;
4391;SDS011;2210;51.938;8.488;2023-05-10T17:51:59;5.43;;;4.60;;
4391;SDS011;2210;51.938;8.488;2023-05-10T17:55:59;4.82;;;4.43;;
4391;SDS011;2210;51.938;8.488;2023-05-10T18:00:03;8.77;;;5.47;;
4391;SDS011;2210;51.938;8.488;2023-05-10T18:04:05;7.17;;;6.20;;
4391;SDS011;2210;51.938;8.488;2023-05-10T18:08:08;7.40;;;6.40;;
4391;SDS011;2210;51.938;8.488;2023-05-10T18:12:09;8.23;;;6.40;;
4391;SDS011;2210;51.938;8.488;2023-05-10T18:16:09;6.82;;;6.13;;
4391;SDS011;2210;51.938;8.488;2023-05-10T18:20:15;10.60;;;6.93;;
4391;SDS011;2210;51.938;8.488;2023-05-10T18:24:18;14.63;;;7.30;;
4391;SDS011;2210;51.938;8.488;2023-05-10T18:28:23;8.93;;;8.03;;
4391;SDS011;2210;51.938;8.488;2023-05-10T18:32:23;10.67;;;8.70;;
4391;SDS011;2210;51.938;8.488;2023-05-10T18:36:24;11.77;;;7.90;;
4391;SDS011;2210;51.938;8.488;2023-05-10T18:40:25;9.03;;;8.10;;
4391;SDS011;2210;51.938;8.488;2023-05-10T18:44:26;8.27;;;7.50;;
4391;SDS011;2210;51.938;8.488;2023-05-10T18:48:27;10.13;;;7.63;;
4391;SDS011;2210;51.938;8.488;2023-05-10T18:52:28;12.88;;;8.45;;
4391;SDS011;2210;51.938;8.488;2023-05-10T18:56:31;11.57;;;8.68;;
4391;SDS011;2210;51.938;8.488;2023-05-10T19:00:31;11.67;;;8.50;;
4391;SDS011;2210;51.938;8.488;2023-05-10T19:04:34;8.60;;;7.57;;
4391;SDS011;2210;51.938;8.488;2023-05-10T19:08:34;8.77;;;7.87;;
4391;SDS011;2210;51.938;8.488;2023-05-10T19:12:35;9.10;;;7.17;;
4391;SDS011;2210;51.938;8.488;2023-05-10T19:16:36;7.47;;;6.20;;
4391;SDS011;2210;51.938;8.488;2023-05-10T19:20:37;7.90;;;6.90;;
4391;SDS011;2210;51.938;8.488;2023-05-10T19:24:38;8.60;;;6.97;;
4391;SDS011;2210;51.938;8.488;2023-05-10T19:28:39;10.63;;;6.82;;
4391;SDS011;2210;51.938;8.488;2023-05-10T19:32:40;9.03;;;8.00;;
4391;SDS011;2210;51.938;8.488;2023-05-10T19:36:43;7.20;;;6.50;;
4391;SDS011;2210;51.938;8.488;2023-05-10T19:40:47;9.00;;;7.80;;
4391;SDS011;2210;51.938;8.488;2023-05-10T19:44:48;7.80;;;7.00;;
4391;SDS011;2210;51.938;8.488;2023-05-10T19:48:52;10.17;;;8.00;;
4391;SDS011;2210;51.938;8.488;2023-05-10T19:52:56;8.53;;;7.57;;
4391;SDS011;2210;51.938;8.488;2023-05-10T19:56:57;7.43;;;6.43;;
4391;SDS011;2210;51.938;8.488;2023-05-10T20:00:58;10.40;;;9.30;;
4391;SDS011;2210;51.938;8.488;2023-05-10T20:05:00;9.47;;;8.47;;
4391;SDS011;2210;51.938;8.488;2023-05-10T20:09:00;11.63;;;8.35;;
4391;SDS011;2210;51.938;8.488;2023-05-10T20:13:01;12.20;;;8.67;;
4391;SDS011;2210;51.938;8.488;2023-05-10T20:17:01;9.10;;;8.20;;
4391;SDS011;2210;51.938;8.488;2023-05-10T20:21:04;13.32;;;8.20;;
4391;SDS011;2210;51.938;8.488;2023-05-10T20:25:05;10.97;;;9.00;;
4391;SDS011;2210;51.938;8.488;2023-05-10T20:29:15;10.77;;;8.27;;
4391;SDS011;2210;51.938;8.488;2023-05-10T20:33:21;13.37;;;9.03;;
4391;SDS011;2210;51.938;8.488;2023-05-10T20:37:28;12.20;;;9.67;;
4391;SDS011;2210;51.938;8.488;2023-05-10T20:41:28;14.33;;;10.90;;
4391;SDS011;2210;51.938;8.488;2023-05-10T20:45:38;11.63;;;10.38;;
4391;SDS011;2210;51.938;8.488;2023-05-10T20:49:38;11.57;;;10.40;;
4391;SDS011;2210;51.938;8.488;2023-05-10T20:53:39;14.80;;;11.40;;
4391;SDS011;2210;51.938;8.488;2023-05-10T20:57:39;16.85;;;12.48;;
4391;SDS011;2210;51.938;8.488;2023-05-10T21:01:39;13.13;;;11.73;;
4391;SDS011;2210;51.938;8.488;2023-05-10T21:05:40;15.50;;;12.70;;
4391;SDS011;2210;51.938;8.488;2023-05-10T21:09:40;13.60;;;12.00;;
4391;SDS011;2210;51.938;8.488;2023-05-10T21:13:40;13.13;;;11.82;;
4391;SDS011;2210;51.938;8.488;2023-05-10T21:17:40;16.15;;;12.60;;
4391;SDS011;2210;51.938;8.488;2023-05-10T21:21:41;15.27;;;13.57;;
4391;SDS011;2210;51.938;8.488;2023-05-10T21:25:41;13.80;;;12.18;;
4391;SDS011;2210;51.938;8.488;2023-05-10T21:29:41;15.95;;;11.73;;
4391;SDS011;2210;51.938;8.488;2023-05-10T21:33:41;32.43;;;14.00;;
4391;SDS011;2210;51.938;8.488;2023-05-10T21:37:42;18.50;;;11.90;;
4391;SDS011;2210;51.938;8.488;2023-05-10T21:41:48;14.52;;;12.43;;
4391;SDS011;2210;51.938;8.488;2023-05-10T21:45:51;15.67;;;13.07;;
4391;SDS011;2210;51.938;8.488;2023-05-10T21:49:55;18.53;;;12.83;;
4391;SDS011;2210;51.938;8.488;2023-05-10T21:53:55;15.17;;;12.40;;
4391;SDS011;2210;51.938;8.488;2023-05-10T21:57:56;17.90;;;12.57;;
4391;SDS011;2210;51.938;8.488;2023-05-10T22:01:57;21.73;;;13.33;;
4391;SDS011;2210;51.938;8.488;2023-05-10T22:06:00;24.97;;;14.40;;
4391;SDS011;2210;51.938;8.488;2023-05-10T22:10:01;15.87;;;14.17;;
4391;SDS011;2210;51.938;8.488;2023-05-10T22:14:01;19.73;;;14.55;;
4391;SDS011;2210;51.938;8.488;2023-05-10T22:18:04;31.97;;;15.53;;
4391;SDS011;2210;51.938;8.488;2023-05-10T22:22:05;18.73;;;15.10;;
4391;SDS011;2210;51.938;8.488;2023-05-10T22:26:05;22.27;;;16.10;;
4391;SDS011;2210;51.938;8.488;2023-05-10T22:30:07;23.30;;;15.57;;
4391;SDS011;2210;51.938;8.488;2023-05-10T22:34:08;19.80;;;16.37;;
4391;SDS011;2210;51.938;8.488;2023-05-10T22:38:08;25.15;;;16.60;;
4391;SDS011;2210;51.938;8.488;2023-05-10T22:42:08;26.83;;;17.50;;
4391;SDS011;2210;51.938;8.488;2023-05-10T22:46:09;26.37;;;18.40;;
4391;SDS011;2210;51.938;8.488;2023-05-10T22:50:09;22.70;;;16.90;;
4391;SDS011;2210;51.938;8.488;2023-05-10T22:54:10;22.13;;;16.47;;
4391;SDS011;2210;51.938;8.488;2023-05-10T22:58:13;22.08;;;17.75;;
4391;SDS011;2210;51.938;8.488;2023-05-10T23:02:14;26.60;;;18.37;;
4391;SDS011;2210;51.938;8.488;2023-05-10T23:06:14;24.97;;;17.40;;
4391;SDS011;2210;51.938;8.488;2023-05-10T23:10:14;26.13;;;18.30;;
4391;SDS011;2210;51.938;8.488;2023-05-10T23:14:18;22.13;;;17.23;;
4391;SDS011;2210;51.938;8.488;2023-05-10T23:18:27;28.20;;;18.93;;
4391;SDS011;2210;51.938;8.488;2023-05-10T23:22:30;20.97;;;17.40;;
4391;SDS011;2210;51.938;8.488;2023-05-10T23:26:30;26.27;;;18.60;;
4391;SDS011;2210;51.938;8.488;2023-05-10T23:30:34;25.50;;;17.87;;
4391;SDS011;2210;51.938;8.488;2023-05-10T23:34:37;24.90;;;17.93;;
4391;SDS011;2210;51.938;8.488;2023-05-10T23:38:38;21.90;;;16.70;;
4391;SDS011;2210;51.938;8.488;2023-05-10T23:42:38;26.07;;;18.87;;
4391;SDS011;2210;51.938;8.488;2023-05-10T23:46:39;25.03;;;18.37;;
4391;SDS011;2210;51.938;8.488;2023-05-10T23:50:42;25.00;;;18.13;;
4391;SDS011;2210;51.938;8.488;2023-05-10T23:54:43;24.57;;;18.73;;
4391;SDS011;2210;51.938;8.488;2023-05-10T23:58:43;26.20;;;18.50;;
